sensor_id;sensor_type;location;lat;lon;timestamp;temperature;humidity
63976;DHT22;50167;47.958;21.780;2023-09-12T00:00:56;23.46;59.98
63976;DHT22;50167;47.958;21.780;2023-09-12T00:03:23;23.53;59.55
63976;DHT22;50167;47.958;21.780;2023-09-12T00:05:55;23.19;59.22
63976;DHT22;50167;47.958;21.780;2023-09-12T00:08:22;22.30;60.97
63976;DHT22;50167;47.958;21.780;2023-09-12T00:11:09;21.57;62.94
63976;DHT22;50167;47.958;21.780;2023-09-12T00:13:32;21.86;64.21
63976;DHT22;50167;47.958;21.780;2023-09-12T00:15:59;22.57;62.90
63976;DHT22;50167;47.958;21.780;2023-09-12T00:18:25;23.10;61.62
63976;DHT22;50167;47.958;21.780;2023-09-12T00:20:52;23.33;60.45
63976;DHT22;50167;47.958;21.780;2023-09-12T00:23:21;23.41;59.82
63976;DHT22;50167;47.958;21.780;2023-09-12T00:25:50;23.51;59.77
63976;DHT22;50167;47.958;21.780;2023-09-12T00:28:18;23.64;59.12
63976;DHT22;50167;47.958;21.780;2023-09-12T00:30:45;23.09;59.29
63976;DHT22;50167;47.958;21.780;2023-09-12T00:33:11;22.16;61.30
63976;DHT22;50167;47.958;21.780;2023-09-12T00:35:37;21.34;63.36
63976;DHT22;50167;47.958;21.780;2023-09-12T00:38:04;21.52;64.97
63976;DHT22;50167;47.958;21.780;2023-09-12T00:40:30;22.28;63.44
63976;DHT22;50167;47.958;21.780;2023-09-12T00:42:56;22.61;61.98
63976;DHT22;50167;47.958;21.780;2023-09-12T00:45:23;22.82;61.22
63976;DHT22;50167;47.958;21.780;2023-09-12T00:47:49;22.86;60.25
63976;DHT22;50167;47.958;21.780;2023-09-12T00:50:18;22.79;60.36
63976;DHT22;50167;47.958;21.780;2023-09-12T00:52:45;22.82;60.22
63976;DHT22;50167;47.958;21.780;2023-09-12T00:55:12;22.93;59.83
63976;DHT22;50167;47.958;21.780;2023-09-12T00:57:38;23.02;59.53
63976;DHT22;50167;47.958;21.780;2023-09-12T01:00:06;22.64;59.10
63976;DHT22;50167;47.958;21.780;2023-09-12T01:02:42;21.70;60.92
63976;DHT22;50167;47.958;21.780;2023-09-12T01:05:08;20.93;58.37
63976;DHT22;50167;47.958;21.780;2023-09-12T01:07:37;20.35;63.79
63976;DHT22;50167;47.958;21.780;2023-09-12T01:10:06;20.73;65.71
63976;DHT22;50167;47.958;21.780;2023-09-12T01:12:33;21.68;64.59
63976;DHT22;50167;47.958;21.780;2023-09-12T01:14:59;22.31;62.46
63976;DHT22;50167;47.958;21.780;2023-09-12T01:17:27;22.65;61.12
63976;DHT22;50167;47.958;21.780;2023-09-12T01:19:54;22.93;60.05
63976;DHT22;50167;47.958;21.780;2023-09-12T01:23:17;23.12;59.14
63976;DHT22;50167;47.958;21.780;2023-09-12T01:28:44;21.09;61.64
63976;DHT22;50167;47.958;21.780;2023-09-12T01:31:12;20.34;63.80
63976;DHT22;50167;47.958;21.780;2023-09-12T01:33:40;20.78;65.97
63976;DHT22;50167;47.958;21.780;2023-09-12T01:36:09;21.79;63.74
63976;DHT22;50167;47.958;21.780;2023-09-12T01:38:35;22.27;62.15
63976;DHT22;50167;47.958;21.780;2023-09-12T01:41:02;22.57;60.83
63976;DHT22;50167;47.958;21.780;2023-09-12T01:43:29;22.72;60.00
63976;DHT22;50167;47.958;21.780;2023-09-12T01:45:59;22.89;59.36
63976;DHT22;50167;47.958;21.780;2023-09-12T01:48:33;22.47;58.65
63976;DHT22;50167;47.958;21.780;2023-09-12T01:51:02;21.40;60.79
63976;DHT22;50167;47.958;21.780;2023-09-12T01:53:29;20.58;62.73
63976;DHT22;50167;47.958;21.780;2023-09-12T01:55:57;20.87;64.84
63976;DHT22;50167;47.958;21.780;2023-09-12T01:58:26;21.83;63.15
63976;DHT22;50167;47.958;21.780;2023-09-12T02:00:52;22.40;61.30
63976;DHT22;50167;47.958;21.780;2023-09-12T02:03:18;22.71;60.21
63976;DHT22;50167;47.958;21.780;2023-09-12T02:05:44;22.91;59.63
63976;DHT22;50167;47.958;21.780;2023-09-12T02:08:11;22.51;58.78
63976;DHT22;50167;47.958;21.780;2023-09-12T02:10:37;21.55;60.76
63976;DHT22;50167;47.958;21.780;2023-09-12T02:13:03;20.72;62.76
63976;DHT22;50167;47.958;21.780;2023-09-12T02:15:29;21.03;64.71
63976;DHT22;50167;47.958;21.780;2023-09-12T02:17:55;21.96;62.88
63976;DHT22;50167;47.958;21.780;2023-09-12T02:20:21;22.47;61.13
63976;DHT22;50167;47.958;21.780;2023-09-12T02:22:48;22.74;59.90
63976;DHT22;50167;47.958;21.780;2023-09-12T02:25:14;22.93;59.02
63976;DHT22;50167;47.958;21.780;2023-09-12T02:27:40;22.51;58.47
63976;DHT22;50167;47.958;21.780;2023-09-12T02:30:07;21.52;60.25
63976;DHT22;50167;47.958;21.780;2023-09-12T02:32:34;20.71;62.46
63976;DHT22;50167;47.958;21.780;2023-09-12T02:35:00;20.93;64.62
63976;DHT22;50167;47.958;21.780;2023-09-12T02:37:26;21.83;63.25
63976;DHT22;50167;47.958;21.780;2023-09-12T02:39:53;22.24;61.55
63976;DHT22;50167;47.958;21.780;2023-09-12T02:42:19;22.43;60.51
63976;DHT22;50167;47.958;21.780;2023-09-12T02:44:45;22.48;60.18
63976;DHT22;50167;47.958;21.780;2023-09-12T02:47:11;22.67;59.64
63976;DHT22;50167;47.958;21.780;2023-09-12T02:49:37;22.72;59.29
63976;DHT22;50167;47.958;21.780;2023-09-12T02:52:04;22.21;58.77
63976;DHT22;50167;47.958;21.780;2023-09-12T02:54:30;21.17;60.63
63976;DHT22;50167;47.958;21.780;2023-09-12T02:56:56;20.29;62.80
63976;DHT22;50167;47.958;21.780;2023-09-12T02:59:23;20.45;64.70
63976;DHT22;50167;47.958;21.780;2023-09-12T03:01:49;21.24;63.18
63976;DHT22;50167;47.958;21.780;2023-09-12T03:04:15;21.65;61.64
63976;DHT22;50167;47.958;21.780;2023-09-12T03:06:41;21.83;60.84
63976;DHT22;50167;47.958;21.780;2023-09-12T03:09:07;21.99;60.30
63976;DHT22;50167;47.958;21.780;2023-09-12T03:11:34;22.09;59.66
63976;DHT22;50167;47.958;21.780;2023-09-12T03:14:00;22.13;59.28
63976;DHT22;50167;47.958;21.780;2023-09-12T03:16:26;21.61;59.01
63976;DHT22;50167;47.958;21.780;2023-09-12T03:18:52;20.59;60.82
63976;DHT22;50167;47.958;21.780;2023-09-12T03:21:18;19.72;62.90
63976;DHT22;50167;47.958;21.780;2023-09-12T03:23:44;19.88;65.06
63976;DHT22;50167;47.958;21.780;2023-09-12T03:26:10;20.78;63.97
63976;DHT22;50167;47.958;21.780;2023-09-12T03:28:36;21.20;62.34
63976;DHT22;50167;47.958;21.780;2023-09-12T03:31:13;21.45;61.36
63976;DHT22;50167;47.958;21.780;2023-09-12T03:33:40;21.65;60.72
63976;DHT22;50167;47.958;21.780;2023-09-12T03:36:07;21.82;60.15
63976;DHT22;50167;47.958;21.780;2023-09-12T03:42:34;22.00;59.30
63976;DHT22;50167;47.958;21.780;2023-09-12T03:45:02;21.61;58.72
63976;DHT22;50167;47.958;21.780;2023-09-12T03:47:29;20.63;60.71
63976;DHT22;50167;47.958;21.780;2023-09-12T03:49:55;19.81;62.86
63976;DHT22;50167;47.958;21.780;2023-09-12T03:52:21;19.94;64.78
63976;DHT22;50167;47.958;21.780;2023-09-12T03:54:47;20.66;63.55
63976;DHT22;50167;47.958;21.780;2023-09-12T03:57:14;21.00;62.39
63976;DHT22;50167;47.958;21.780;2023-09-12T03:59:40;21.21;62.08
63976;DHT22;50167;47.958;21.780;2023-09-12T04:02:06;21.34;61.43
63976;DHT22;50167;47.958;21.780;2023-09-12T04:04:32;21.42;61.08
63976;DHT22;50167;47.958;21.780;2023-09-12T04:06:58;21.51;60.82
63976;DHT22;50167;47.958;21.780;2023-09-12T04:09:24;21.54;60.59
63976;DHT22;50167;47.958;21.780;2023-09-12T04:11:51;21.65;60.48
63976;DHT22;50167;47.958;21.780;2023-09-12T04:14:17;21.75;60.13
63976;DHT22;50167;47.958;21.780;2023-09-12T04:16:43;21.82;59.77
63976;DHT22;50167;47.958;21.780;2023-09-12T04:19:09;21.95;59.62
63976;DHT22;50167;47.958;21.780;2023-09-12T04:21:35;22.02;59.31
63976;DHT22;50167;47.958;21.780;2023-09-12T04:24:01;21.62;59.01
63976;DHT22;50167;47.958;21.780;2023-09-12T04:26:28;20.71;60.80
63976;DHT22;50167;47.958;21.780;2023-09-12T04:28:54;19.96;62.71
63976;DHT22;50167;47.958;21.780;2023-09-12T04:31:20;20.27;64.92
63976;DHT22;50167;47.958;21.780;2023-09-12T04:33:46;21.20;63.27
63976;DHT22;50167;47.958;21.780;2023-09-12T04:36:12;21.68;61.51
63976;DHT22;50167;47.958;21.780;2023-09-12T04:38:38;21.91;60.62
63976;DHT22;50167;47.958;21.780;2023-09-12T04:41:05;22.17;59.93
63976;DHT22;50167;47.958;21.780;2023-09-12T04:43:32;22.47;59.31
63976;DHT22;50167;47.958;21.780;2023-09-12T04:45:59;22.06;58.50
63976;DHT22;50167;47.958;21.780;2023-09-12T04:48:25;21.10;60.52
63976;DHT22;50167;47.958;21.780;2023-09-12T04:50:51;20.32;62.69
63976;DHT22;50167;47.958;21.780;2023-09-12T04:53:18;20.60;64.46
63976;DHT22;50167;47.958;21.780;2023-09-12T04:55:44;21.52;62.66
63976;DHT22;50167;47.958;21.780;2023-09-12T04:58:10;22.19;61.29
63976;DHT22;50167;47.958;21.780;2023-09-12T05:00:36;22.47;59.87
63976;DHT22;50167;47.958;21.780;2023-09-12T05:03:04;22.65;59.17
63976;DHT22;50167;47.958;21.780;2023-09-12T05:05:30;22.25;58.79
63976;DHT22;50167;47.958;21.780;2023-09-12T05:07:57;21.36;60.26
63976;DHT22;50167;47.958;21.780;2023-09-12T05:10:23;20.62;62.41
63976;DHT22;50167;47.958;21.780;2023-09-12T05:12:49;20.87;64.12
63976;DHT22;50167;47.958;21.780;2023-09-12T05:15:15;21.70;62.75
63976;DHT22;50167;47.958;21.780;2023-09-12T05:17:41;22.27;61.25
63976;DHT22;50167;47.958;21.780;2023-09-12T05:20:08;22.67;60.22
63976;DHT22;50167;47.958;21.780;2023-09-12T05:22:35;22.79;59.30
63976;DHT22;50167;47.958;21.780;2023-09-12T05:25:01;22.37;59.26
63976;DHT22;50167;47.958;21.780;2023-09-12T05:27:27;21.51;60.91
63976;DHT22;50167;47.958;21.780;2023-09-12T05:29:53;20.78;62.89
63976;DHT22;50167;47.958;21.780;2023-09-12T05:32:19;21.07;64.61
63976;DHT22;50167;47.958;21.780;2023-09-12T05:34:46;21.91;63.20
63976;DHT22;50167;47.958;21.780;2023-09-12T05:37:14;22.47;61.71
63976;DHT22;50167;47.958;21.780;2023-09-12T05:39:40;22.76;60.55
63976;DHT22;50167;47.958;21.780;2023-09-12T05:42:06;23.09;59.78
63976;DHT22;50167;47.958;21.780;2023-09-12T05:44:32;23.40;58.77
63976;DHT22;50167;47.958;21.780;2023-09-12T05:46:58;23.12;58.37
63976;DHT22;50167;47.958;21.780;2023-09-12T05:49:24;22.41;59.75
63976;DHT22;50167;47.958;21.780;2023-09-12T05:51:51;21.89;61.17
63976;DHT22;50167;47.958;21.780;2023-09-12T05:54:18;21.54;62.10
63976;DHT22;50167;47.958;21.780;2023-09-12T05:56:45;21.27;63.26
63976;DHT22;50167;47.958;21.780;2023-09-12T05:59:13;21.95;63.59
63976;DHT22;50167;47.958;21.780;2023-09-12T06:01:39;23.05;60.94
63976;DHT22;50167;47.958;21.780;2023-09-12T06:04:06;23.68;58.81
63976;DHT22;50167;47.958;21.780;2023-09-12T06:06:32;23.67;57.43
63976;DHT22;50167;47.958;21.780;2023-09-12T06:08:59;23.09;58.61
63976;DHT22;50167;47.958;21.780;2023-09-12T06:11:25;22.65;59.97
63976;DHT22;50167;47.958;21.780;2023-09-12T06:13:51;22.40;60.59
63976;DHT22;50167;47.958;21.780;2023-09-12T06:16:17;22.20;61.35
63976;DHT22;50167;47.958;21.780;2023-09-12T06:18:43;22.05;61.30
63976;DHT22;50167;47.958;21.780;2023-09-12T06:21:09;21.95;61.99
63976;DHT22;50167;47.958;21.780;2023-09-12T06:23:36;21.86;62.01
63976;DHT22;50167;47.958;21.780;2023-09-12T06:26:02;21.82;62.27
63976;DHT22;50167;47.958;21.780;2023-09-12T06:28:30;21.78;62.67
63976;DHT22;50167;47.958;21.780;2023-09-12T06:30:58;22.64;62.97
63976;DHT22;50167;47.958;21.780;2023-09-12T06:33:27;23.99;59.78
63976;DHT22;50167;47.958;21.780;2023-09-12T06:35:54;24.81;55.33
63976;DHT22;50167;47.958;21.780;2023-09-12T06:38:22;24.42;55.11
63976;DHT22;50167;47.958;21.780;2023-09-12T06:40:48;23.88;56.61
63976;DHT22;50167;47.958;21.780;2023-09-12T06:43:15;23.47;58.51
63976;DHT22;50167;47.958;21.780;2023-09-12T06:45:41;23.20;58.39
63976;DHT22;50167;47.958;21.780;2023-09-12T06:48:08;23.06;59.21
63976;DHT22;50167;47.958;21.780;2023-09-12T06:50:34;22.99;59.85
63976;DHT22;50167;47.958;21.780;2023-09-12T06:53:00;22.98;59.72
63976;DHT22;50167;47.958;21.780;2023-09-12T06:55:28;22.95;57.54
63976;DHT22;50167;47.958;21.780;2023-09-12T06:57:54;22.88;57.54
63976;DHT22;50167;47.958;21.780;2023-09-12T07:00:20;22.82;58.74
63976;DHT22;50167;47.958;21.780;2023-09-12T07:02:46;22.76;58.60
63976;DHT22;50167;47.958;21.780;2023-09-12T07:05:12;22.78;58.02
63976;DHT22;50167;47.958;21.780;2023-09-12T07:07:39;22.82;58.70
63976;DHT22;50167;47.958;21.780;2023-09-12T07:10:06;22.88;58.76
63976;DHT22;50167;47.958;21.780;2023-09-12T07:12:32;22.95;57.69
63976;DHT22;50167;47.958;21.780;2023-09-12T07:14:59;22.96;57.88
63976;DHT22;50167;47.958;21.780;2023-09-12T07:17:29;23.09;58.21
63976;DHT22;50167;47.958;21.780;2023-09-12T07:19:55;23.15;57.60
63976;DHT22;50167;47.958;21.780;2023-09-12T07:22:22;23.22;58.34
63976;DHT22;50167;47.958;21.780;2023-09-12T07:24:48;23.33;57.95
63976;DHT22;50167;47.958;21.780;2023-09-12T07:27:14;23.50;57.96
63976;DHT22;50167;47.958;21.780;2023-09-12T07:29:41;23.60;57.81
63976;DHT22;50167;47.958;21.780;2023-09-12T07:32:07;23.73;57.46
63976;DHT22;50167;47.958;21.780;2023-09-12T07:34:34;23.84;56.86
63976;DHT22;50167;47.958;21.780;2023-09-12T07:37:00;23.95;57.17
63976;DHT22;50167;47.958;21.780;2023-09-12T07:39:26;24.12;56.73
63976;DHT22;50167;47.958;21.780;2023-09-12T07:41:53;24.27;56.52
63976;DHT22;50167;47.958;21.780;2023-09-12T07:44:19;24.42;56.27
63976;DHT22;50167;47.958;21.780;2023-09-12T07:46:46;24.53;55.97
63976;DHT22;50167;47.958;21.780;2023-09-12T07:49:12;24.67;55.57
63976;DHT22;50167;47.958;21.780;2023-09-12T07:51:39;24.80;55.11
63976;DHT22;50167;47.958;21.780;2023-09-12T07:54:05;24.90;53.91
63976;DHT22;50167;47.958;21.780;2023-09-12T07:56:34;25.00;54.07
63976;DHT22;50167;47.958;21.780;2023-09-12T07:59:01;25.11;53.85
63976;DHT22;50167;47.958;21.780;2023-09-12T08:01:27;25.17;53.88
63976;DHT22;50167;47.958;21.780;2023-09-12T08:03:53;25.26;54.12
63976;DHT22;50167;47.958;21.780;2023-09-12T08:06:20;25.36;53.43
63976;DHT22;50167;47.958;21.780;2023-09-12T08:08:46;25.46;53.65
63976;DHT22;50167;47.958;21.780;2023-09-12T08:11:12;25.57;52.92
63976;DHT22;50167;47.958;21.780;2023-09-12T08:13:38;25.67;52.62
63976;DHT22;50167;47.958;21.780;2023-09-12T08:16:04;25.77;52.32
63976;DHT22;50167;47.958;21.780;2023-09-12T08:18:30;25.84;52.39
63976;DHT22;50167;47.958;21.780;2023-09-12T08:20:57;25.95;52.38
63976;DHT22;50167;47.958;21.780;2023-09-12T08:23:23;26.09;51.98
63976;DHT22;50167;47.958;21.780;2023-09-12T08:25:50;26.22;51.01
63976;DHT22;50167;47.958;21.780;2023-09-12T08:28:16;26.30;51.51
63976;DHT22;50167;47.958;21.780;2023-09-12T08:30:46;26.38;50.65
63976;DHT22;50167;47.958;21.780;2023-09-12T08:33:12;26.49;49.63
63976;DHT22;50167;47.958;21.780;2023-09-12T08:35:39;26.55;50.36
63976;DHT22;50167;47.958;21.780;2023-09-12T08:38:06;26.56;49.82
63976;DHT22;50167;47.958;21.780;2023-09-12T08:40:35;26.60;50.55
63976;DHT22;50167;47.958;21.780;2023-09-12T08:43:02;26.67;49.75
63976;DHT22;50167;47.958;21.780;2023-09-12T08:45:32;26.78;50.13
63976;DHT22;50167;47.958;21.780;2023-09-12T08:48:00;26.86;50.13
63976;DHT22;50167;47.958;21.780;2023-09-12T08:50:27;26.96;49.64
63976;DHT22;50167;47.958;21.780;2023-09-12T08:52:55;27.04;48.40
63976;DHT22;50167;47.958;21.780;2023-09-12T08:55:22;27.09;49.03
63976;DHT22;50167;47.958;21.780;2023-09-12T08:57:50;27.22;48.69
63976;DHT22;50167;47.958;21.780;2023-09-12T09:00:17;27.32;48.21
63976;DHT22;50167;47.958;21.780;2023-09-12T09:02:44;27.44;47.61
63976;DHT22;50167;47.958;21.780;2023-09-12T09:05:11;27.52;47.25
63976;DHT22;50167;47.958;21.780;2023-09-12T09:07:42;27.64;46.87
63976;DHT22;50167;47.958;21.780;2023-09-12T09:10:17;27.79;47.62
63976;DHT22;50167;47.958;21.780;2023-09-12T09:12:45;27.95;47.10
63976;DHT22;50167;47.958;21.780;2023-09-12T09:15:29;28.04;46.10
63976;DHT22;50167;47.958;21.780;2023-09-12T09:17:57;28.10;46.10
63976;DHT22;50167;47.958;21.780;2023-09-12T09:20:32;28.19;46.12
63976;DHT22;50167;47.958;21.780;2023-09-12T09:23:06;28.30;45.85
63976;DHT22;50167;47.958;21.780;2023-09-12T09:25:33;28.41;45.13
63976;DHT22;50167;47.958;21.780;2023-09-12T09:28:04;28.52;43.61
63976;DHT22;50167;47.958;21.780;2023-09-12T09:30:47;28.61;44.25
63976;DHT22;50167;47.958;21.780;2023-09-12T09:33:15;28.65;44.20
63976;DHT22;50167;47.958;21.780;2023-09-12T09:35:42;28.75;44.43
63976;DHT22;50167;47.958;21.780;2023-09-12T09:38:08;28.89;44.39
63976;DHT22;50167;47.958;21.780;2023-09-12T09:40:35;28.98;44.32
63976;DHT22;50167;47.958;21.780;2023-09-12T09:43:03;29.07;43.74
63976;DHT22;50167;47.958;21.780;2023-09-12T09:45:30;29.19;43.31
63976;DHT22;50167;47.958;21.780;2023-09-12T09:48:06;29.25;43.12
63976;DHT22;50167;47.958;21.780;2023-09-12T09:50:36;29.30;43.43
63976;DHT22;50167;47.958;21.780;2023-09-12T09:53:04;29.37;42.29
63976;DHT22;50167;47.958;21.780;2023-09-12T09:55:32;29.40;42.65
63976;DHT22;50167;47.958;21.780;2023-09-12T09:57:58;29.46;42.53
63976;DHT22;50167;47.958;21.780;2023-09-12T10:00:25;29.53;42.48
63976;DHT22;50167;47.958;21.780;2023-09-12T10:02:53;29.57;41.87
63976;DHT22;50167;47.958;21.780;2023-09-12T10:05:22;29.65;42.68
63976;DHT22;50167;47.958;21.780;2023-09-12T10:07:50;29.75;42.35
63976;DHT22;50167;47.958;21.780;2023-09-12T10:10:17;29.84;42.11
63976;DHT22;50167;47.958;21.780;2023-09-12T10:12:54;29.96;41.05
63976;DHT22;50167;47.958;21.780;2023-09-12T10:15:20;29.99;41.12
63976;DHT22;50167;47.958;21.780;2023-09-12T10:17:59;30.06;40.52
63976;DHT22;50167;47.958;21.780;2023-09-12T10:21:10;30.05;39.83
63976;DHT22;50167;47.958;21.780;2023-09-12T10:23:24;30.06;40.27
63976;DHT22;50167;47.958;21.780;2023-09-12T10:25:51;30.11;39.99
63976;DHT22;50167;47.958;21.780;2023-09-12T10:28:18;30.15;40.43
63976;DHT22;50167;47.958;21.780;2023-09-12T10:30:45;30.18;40.68
63976;DHT22;50167;47.958;21.780;2023-09-12T10:33:13;30.23;41.00
63976;DHT22;50167;47.958;21.780;2023-09-12T10:35:42;30.33;41.01
63976;DHT22;50167;47.958;21.780;2023-09-12T10:38:10;30.47;40.94
63976;DHT22;50167;47.958;21.780;2023-09-12T10:40:39;30.57;39.54
63976;DHT22;50167;47.958;21.780;2023-09-12T10:43:06;30.64;40.53
63976;DHT22;50167;47.958;21.780;2023-09-12T10:45:36;30.73;39.35
63976;DHT22;50167;47.958;21.780;2023-09-12T10:48:05;30.81;39.17
63976;DHT22;50167;47.958;21.780;2023-09-12T10:50:31;30.90;39.56
63976;DHT22;50167;47.958;21.780;2023-09-12T10:53:12;30.99;39.12
63976;DHT22;50167;47.958;21.780;2023-09-12T10:55:38;31.07;38.52
63976;DHT22;50167;47.958;21.780;2023-09-12T10:58:08;31.17;39.59
63976;DHT22;50167;47.958;21.780;2023-09-12T11:00:36;31.28;39.46
63976;DHT22;50167;47.958;21.780;2023-09-12T11:05:56;31.45;38.51
63976;DHT22;50167;47.958;21.780;2023-09-12T11:08:22;31.53;37.67
63976;DHT22;50167;47.958;21.780;2023-09-12T11:11:18;31.60;38.06
63976;DHT22;50167;47.958;21.780;2023-09-12T11:14:04;31.73;37.15
63976;DHT22;50167;47.958;21.780;2023-09-12T11:16:32;31.81;37.09
63976;DHT22;50167;47.958;21.780;2023-09-12T11:19:19;31.88;37.11
63976;DHT22;50167;47.958;21.780;2023-09-12T11:21:50;32.03;36.59
63976;DHT22;50167;47.958;21.780;2023-09-12T11:24:17;32.11;35.79
63976;DHT22;50167;47.958;21.780;2023-09-12T11:27:01;32.20;35.68
63976;DHT22;50167;47.958;21.780;2023-09-12T11:29:37;32.32;35.72
63976;DHT22;50167;47.958;21.780;2023-09-12T11:32:04;32.42;35.37
63976;DHT22;50167;47.958;21.780;2023-09-12T11:34:41;32.46;34.99
63976;DHT22;50167;47.958;21.780;2023-09-12T11:37:08;32.45;35.27
63976;DHT22;50167;47.958;21.780;2023-09-12T11:39:37;32.49;34.24
63976;DHT22;50167;47.958;21.780;2023-09-12T11:42:04;32.51;34.98
63976;DHT22;50167;47.958;21.780;2023-09-12T11:44:32;32.61;34.74
63976;DHT22;50167;47.958;21.780;2023-09-12T11:47:02;32.62;34.14
63976;DHT22;50167;47.958;21.780;2023-09-12T11:49:41;32.68;34.83
63976;DHT22;50167;47.958;21.780;2023-09-12T11:52:10;32.73;34.05
63976;DHT22;50167;47.958;21.780;2023-09-12T11:54:36;32.75;34.00
63976;DHT22;50167;47.958;21.780;2023-09-12T11:57:03;32.75;34.50
63976;DHT22;50167;47.958;21.780;2023-09-12T11:59:30;32.82;34.48
63976;DHT22;50167;47.958;21.780;2023-09-12T12:01:56;32.89;33.73
63976;DHT22;50167;47.958;21.780;2023-09-12T12:04:24;32.83;34.11
63976;DHT22;50167;47.958;21.780;2023-09-12T12:06:52;32.86;33.59
63976;DHT22;50167;47.958;21.780;2023-09-12T12:09:19;32.89;34.34
63976;DHT22;50167;47.958;21.780;2023-09-12T12:11:46;32.89;33.81
63976;DHT22;50167;47.958;21.780;2023-09-12T12:14:15;32.85;33.96
63976;DHT22;50167;47.958;21.780;2023-09-12T12:16:43;32.86;34.20
63976;DHT22;50167;47.958;21.780;2023-09-12T12:19:12;32.90;33.77
63976;DHT22;50167;47.958;21.780;2023-09-12T12:21:42;33.03;33.71
63976;DHT22;50167;47.958;21.780;2023-09-12T12:24:14;33.33;33.87
63976;DHT22;50167;47.958;21.780;2023-09-12T12:26:42;33.93;32.06
63976;DHT22;50167;47.958;21.780;2023-09-12T12:29:09;34.68;30.75
63976;DHT22;50167;47.958;21.780;2023-09-12T12:31:39;35.59;30.05
63976;DHT22;50167;47.958;21.780;2023-09-12T12:34:06;36.44;28.69
63976;DHT22;50167;47.958;21.780;2023-09-12T12:36:32;37.06;27.51
63976;DHT22;50167;47.958;21.780;2023-09-12T12:38:58;37.44;26.91
63976;DHT22;50167;47.958;21.780;2023-09-12T12:41:27;37.88;26.71
63976;DHT22;50167;47.958;21.780;2023-09-12T12:43:59;38.62;25.36
63976;DHT22;50167;47.958;21.780;2023-09-12T12:46:27;39.12;25.22
63976;DHT22;50167;47.958;21.780;2023-09-12T12:48:54;39.44;24.38
63976;DHT22;50167;47.958;21.780;2023-09-12T12:51:25;39.89;24.82
63976;DHT22;50167;47.958;21.780;2023-09-12T12:54:03;40.52;24.48
63976;DHT22;50167;47.958;21.780;2023-09-12T12:56:29;40.93;23.56
63976;DHT22;50167;47.958;21.780;2023-09-12T12:58:58;41.25;23.56
63976;DHT22;50167;47.958;21.780;2023-09-12T13:01:27;41.63;22.84
63976;DHT22;50167;47.958;21.780;2023-09-12T13:03:53;42.09;22.59
63976;DHT22;50167;47.958;21.780;2023-09-12T13:06:20;42.59;22.01
63976;DHT22;50167;47.958;21.780;2023-09-12T13:08:48;42.68;21.54
63976;DHT22;50167;47.958;21.780;2023-09-12T13:11:15;42.64;21.80
63976;DHT22;50167;47.958;21.780;2023-09-12T13:13:42;42.64;21.31
63976;DHT22;50167;47.958;21.780;2023-09-12T13:16:13;42.68;21.49
63976;DHT22;50167;47.958;21.780;2023-09-12T13:18:40;42.67;21.31
63976;DHT22;50167;47.958;21.780;2023-09-12T13:21:06;42.76;21.41
63976;DHT22;50167;47.958;21.780;2023-09-12T13:23:37;42.63;21.13
63976;DHT22;50167;47.958;21.780;2023-09-12T13:26:04;42.61;21.50
63976;DHT22;50167;47.958;21.780;2023-09-12T13:28:31;42.71;21.20
63976;DHT22;50167;47.958;21.780;2023-09-12T13:30:57;43.00;21.26
63976;DHT22;50167;47.958;21.780;2023-09-12T13:33:24;43.19;20.90
63976;DHT22;50167;47.958;21.780;2023-09-12T13:35:50;43.31;20.83
63976;DHT22;50167;47.958;21.780;2023-09-12T13:38:17;43.42;20.39
63976;DHT22;50167;47.958;21.780;2023-09-12T13:40:46;43.49;20.20
63976;DHT22;50167;47.958;21.780;2023-09-12T13:43:13;43.48;20.28
63976;DHT22;50167;47.958;21.780;2023-09-12T13:45:39;43.39;20.52
63976;DHT22;50167;47.958;21.780;2023-09-12T13:48:06;43.38;20.40
63976;DHT22;50167;47.958;21.780;2023-09-12T13:50:34;43.35;20.06
63976;DHT22;50167;47.958;21.780;2023-09-12T13:53:02;43.24;20.82
63976;DHT22;50167;47.958;21.780;2023-09-12T13:55:35;43.21;20.43
63976;DHT22;50167;47.958;21.780;2023-09-12T13:58:03;43.29;20.48
63976;DHT22;50167;47.958;21.780;2023-09-12T14:00:31;43.52;20.87
63976;DHT22;50167;47.958;21.780;2023-09-12T14:02:58;43.83;21.43
63976;DHT22;50167;47.958;21.780;2023-09-12T14:05:24;44.00;20.67
63976;DHT22;50167;47.958;21.780;2023-09-12T14:07:51;44.04;20.50
63976;DHT22;50167;47.958;21.780;2023-09-12T14:10:19;44.07;19.86
63976;DHT22;50167;47.958;21.780;2023-09-12T14:12:45;43.79;19.99
63976;DHT22;50167;47.958;21.780;2023-09-12T14:15:12;43.41;20.08
63976;DHT22;50167;47.958;21.780;2023-09-12T14:17:41;43.34;20.16
63976;DHT22;50167;47.958;21.780;2023-09-12T14:20:08;43.60;20.40
63976;DHT22;50167;47.958;21.780;2023-09-12T14:22:35;43.72;19.56
63976;DHT22;50167;47.958;21.780;2023-09-12T14:25:03;43.60;19.82
63976;DHT22;50167;47.958;21.780;2023-09-12T14:27:29;43.46;19.79
63976;DHT22;50167;47.958;21.780;2023-09-12T14:29:55;43.14;19.61
63976;DHT22;50167;47.958;21.780;2023-09-12T14:32:23;42.23;20.34
63976;DHT22;50167;47.958;21.780;2023-09-12T14:34:49;41.17;21.12
63976;DHT22;50167;47.958;21.780;2023-09-12T14:37:16;40.23;22.53
63976;DHT22;50167;47.958;21.780;2023-09-12T14:39:42;39.67;23.20
63976;DHT22;50167;47.958;21.780;2023-09-12T14:42:08;39.24;23.60
63976;DHT22;50167;47.958;21.780;2023-09-12T14:44:37;39.01;24.09
63976;DHT22;50167;47.958;21.780;2023-09-12T14:47:04;39.11;23.80
63976;DHT22;50167;47.958;21.780;2023-09-12T14:49:30;38.98;23.96
63976;DHT22;50167;47.958;21.780;2023-09-12T14:51:56;38.67;23.92
63976;DHT22;50167;47.958;21.780;2023-09-12T14:54:22;38.30;24.61
63976;DHT22;50167;47.958;21.780;2023-09-12T14:56:48;37.96;24.10
63976;DHT22;50167;47.958;21.780;2023-09-12T14:59:17;37.51;24.66
63976;DHT22;50167;47.958;21.780;2023-09-12T15:01:43;36.99;25.49
63976;DHT22;50167;47.958;21.780;2023-09-12T15:04:10;36.44;25.70
63976;DHT22;50167;47.958;21.780;2023-09-12T15:06:39;35.87;26.18
63976;DHT22;50167;47.958;21.780;2023-09-12T15:09:05;35.41;26.86
63976;DHT22;50167;47.958;21.780;2023-09-12T15:11:31;34.91;27.36
63976;DHT22;50167;47.958;21.780;2023-09-12T15:13:58;34.47;28.46
63976;DHT22;50167;47.958;21.780;2023-09-12T15:16:25;34.09;29.03
63976;DHT22;50167;47.958;21.780;2023-09-12T15:18:52;33.74;29.19
63976;DHT22;50167;47.958;21.780;2023-09-12T15:21:18;33.44;29.61
63976;DHT22;50167;47.958;21.780;2023-09-12T15:23:45;33.10;29.69
63976;DHT22;50167;47.958;21.780;2023-09-12T15:26:11;32.82;30.61
63976;DHT22;50167;47.958;21.780;2023-09-12T15:28:37;32.59;30.89